Time;durP1;ratioP1;P1;durP2;ratioP2;P2;SDS_P1;SDS_P2;PMS_P1;PMS_P2;Temp;Humidity;BMP_temperature;BMP_pressure;BME280_temperature;BME280_humidity;BME280_pressure;Samples;Min_cycle;Max_cycle;Signal;HPM_P1;HPM_P2
2021/08/23 00:01:39;;;;;;;16.27;8.10;;;;;;;13.92;68.70;100100.81;5072065;28;20123;-78
2021/08/23 00:04:05;;;;;;;15.45;8.90;;;;;;;13.94;68.80;100099.03;5072902;28;20500;-76
2021/08/23 00:06:30;;;;;;;19.73;8.73;;;;;;;13.96;69.04;100094.63;5072319;28;20528;-78
2021/08/23 00:08:56;;;;;;;30.10;12.60;;;;;;;14.05;68.94;100105.84;5072821;28;20421;-79
2021/08/23 00:11:22;;;;;;;27.90;13.68;;;;;;;14.13;69.07;100107.41;5073001;28;20040;-79
2021/08/23 00:13:48;;;;;;;21.73;11.40;;;;;;;14.07;69.00;100096.19;5071230;28;20048;-78
2021/08/23 00:16:14;;;;;;;17.45;9.50;;;;;;;14.23;68.89;100115.09;5073115;28;20048;-80
2021/08/23 00:18:40;;;;;;;16.23;8.45;;;;;;;14.26;68.83;100121.13;5073520;28;20044;-77
2021/08/23 00:21:12;;;;;;;14.93;7.72;;;;;;;14.21;68.61;100099.41;5075517;28;20427;-79
2021/08/23 00:23:48;;;;;;;20.90;7.57;;;;;;;14.24;68.77;100094.13;5059253;28;20036;-79
2021/08/23 00:26:14;;;;;;;15.07;7.20;;;;;;;14.32;68.79;100120.16;5076197;28;20028;-78
2021/08/23 00:28:40;;;;;;;15.57;7.28;;;;;;;14.24;68.79;100099.34;5083656;28;20081;-78
2021/08/23 00:31:05;;;;;;;18.05;7.85;;;;;;;14.41;68.80;100116.47;5082345;28;20060;-78
2021/08/23 00:33:31;;;;;;;17.73;7.70;;;;;;;14.31;68.68;100092.25;5083373;28;20102;-78
2021/08/23 00:35:57;;;;;;;14.27;7.55;;;;;;;14.38;68.70;100099.09;5082442;28;20040;-80
2021/08/23 00:38:22;;;;;;;19.00;7.20;;;;;;;14.46;68.60;100110.25;5066089;28;20371;-78
2021/08/23 00:40:52;;;;;;;13.70;6.30;;;;;;;14.43;68.76;100102.50;5083915;28;20060;-79
2021/08/23 00:43:18;;;;;;;16.45;6.72;;;;;;;14.54;68.94;100119.72;5064858;28;20040;-79
2021/08/23 00:45:46;;;;;;;12.05;6.38;;;;;;;14.43;68.89;100105.09;5082566;28;20523;-76
2021/08/23 00:48:11;;;;;;;16.05;6.70;;;;;;;14.54;68.93;100117.09;5089405;28;20054;-80
2021/08/23 00:50:38;;;;;;;14.80;6.00;;;;;;;14.59;68.98;100125.72;5099302;28;20013;-79
2021/08/23 00:53:04;;;;;;;13.70;5.55;;;;;;;14.61;68.79;100129.19;5099350;28;20083;-78
2021/08/23 00:55:32;;;;;;;16.88;6.47;;;;;;;14.47;68.96;100113.75;5083907;28;20173;-80
2021/08/23 00:58:01;;;;;;;15.88;6.78;;;;;;;14.57;68.91;100135.38;5082604;28;20059;-78
2021/08/23 01:00:28;;;;;;;13.82;6.20;;;;;;;14.56;68.79;100134.53;5082891;28;20108;-78
2021/08/23 01:03:09;;;;;;;16.65;6.07;;;;;;;14.62;68.78;100141.38;5097490;28;20032;-79
2021/08/23 01:05:34;;;;;;;13.75;5.95;;;;;;;14.60;68.71;100144.03;5097928;28;20026;-79
2021/08/23 01:08:07;;;;;;;11.95;5.78;;;;;;;14.59;68.78;100144.06;5097692;28;20044;-79
2021/08/23 01:10:45;;;;;;;12.43;5.70;;;;;;;14.59;68.68;100141.44;5092721;28;20111;-77
2021/08/23 01:13:11;;;;;;;14.05;5.53;;;;;;;14.46;68.80;100135.59;5090239;28;20066;-79
2021/08/23 01:15:37;;;;;;;11.10;5.65;;;;;;;14.57;68.83;100154.56;5093283;28;20036;-79
2021/08/23 01:18:04;;;;;;;13.07;5.88;;;;;;;14.60;68.98;100148.41;5097045;28;20071;-77
2021/08/23 01:20:37;;;;;;;9.85;5.47;;;;;;;14.61;68.94;100150.13;5089350;28;20032;-80
2021/08/23 01:23:04;;;;;;;10.98;6.00;;;;;;;14.53;68.77;100152.91;5072918;28;20066;-79
2021/08/23 01:25:32;;;;;;;11.32;6.15;;;;;;;14.52;68.95;100151.19;5077631;28;20047;-80
2021/08/23 01:28:17;;;;;;;11.57;5.45;;;;;;;14.57;69.16;100158.94;5064091;28;20177;-79
2021/08/23 01:31:15;;;;;;;13.95;6.10;;;;;;;14.44;69.13;100143.50;5073906;28;20104;-79
2021/08/23 01:33:43;;;;;;;15.20;5.90;;;;;;;14.45;69.22;100144.34;5069064;28;20372;-77
2021/08/23 01:36:10;;;;;;;13.02;5.40;;;;;;;14.50;69.34;100154.72;5073626;28;20043;-77
2021/08/23 01:38:35;;;;;;;16.52;6.40;;;;;;;14.39;69.00;100154.91;5075209;28;20051;-79
2021/08/23 01:41:06;;;;;;;17.30;5.90;;;;;;;14.39;69.19;100163.66;5074742;28;20040;-79
2021/08/23 01:43:33;;;;;;;16.05;5.80;;;;;;;14.29;69.13;100162.06;5074877;28;20040;-78
2021/08/23 01:45:59;;;;;;;14.73;5.25;;;;;;;14.11;69.29;100158.91;5073822;28;20397;-80
2021/08/23 01:48:25;;;;;;;10.13;5.50;;;;;;;14.13;69.45;100175.44;5074358;28;20488;-78
2021/08/23 01:50:51;;;;;;;13.13;5.22;;;;;;;14.00;69.53;100164.34;5072226;28;20106;-79
2021/08/23 01:53:18;;;;;;;15.80;5.68;;;;;;;14.05;69.69;100176.47;5056294;28;20110;-78
2021/08/23 01:55:44;;;;;;;10.93;5.53;;;;;;;13.95;69.75;100155.69;5075218;28;20400;-79
2021/08/23 01:58:11;;;;;;;16.13;6.13;;;;;;;14.06;69.90;100171.19;5072352;28;20044;-78
2021/08/23 02:00:37;;;;;;;13.55;5.65;;;;;;;14.00;69.90;100163.47;5072220;28;20036;-78
2021/08/23 02:03:03;;;;;;;14.73;5.55;;;;;;;14.09;70.20;100163.31;5072204;28;20066;-79
2021/08/23 02:05:29;;;;;;;12.25;5.53;;;;;;;14.10;69.99;100165.03;5056382;28;20086;-77
2021/08/23 02:07:55;;;;;;;21.35;6.07;;;;;;;14.19;70.03;100178.84;5072345;28;20044;-79
2021/08/23 02:10:21;;;;;;;13.95;5.45;;;;;;;14.24;69.93;100172.63;5073105;28;20044;-80
2021/08/23 02:12:47;;;;;;;14.95;5.28;;;;;;;14.26;69.88;100176.09;5072523;28;20043;-78
2021/08/23 02:15:13;;;;;;;13.13;5.28;;;;;;;14.27;69.94;100176.94;5074483;28;20630;-75
2021/08/23 02:17:39;;;;;;;12.75;5.38;;;;;;;14.28;69.97;100181.28;5072273;28;20039;-78
2021/08/23 02:20:07;;;;;;;11.55;5.10;;;;;;;14.30;69.98;100171.66;5072404;28;20048;-79
2021/08/23 02:22:33;;;;;;;17.63;5.70;;;;;;;14.27;69.88;100162.13;5072502;28;20040;-78
2021/08/23 02:24:59;;;;;;;17.25;5.68;;;;;;;14.20;69.71;100149.19;5073087;28;20503;-77
2021/08/23 02:27:25;;;;;;;14.02;5.03;;;;;;;14.32;69.68;100180.34;5073241;28;20120;-78
2021/08/23 02:29:51;;;;;;;15.27;5.30;;;;;;;14.22;69.90;100165.72;5073556;28;20127;-78
2021/08/23 02:32:17;;;;;;;11.95;4.70;;;;;;;14.33;69.82;100183.84;5071700;28;20083;-78
2021/08/23 02:34:43;;;;;;;12.52;5.55;;;;;;;14.35;69.82;100187.28;5054907;28;20473;-77
2021/08/23 02:37:16;;;;;;;13.13;6.20;;;;;;;14.15;69.64;100157.97;5056583;28;20040;-79
2021/08/23 02:39:41;;;;;;;15.10;6.80;;;;;;;14.26;69.78;100165.63;5054398;28;20522;-78
2021/08/23 02:42:13;;;;;;;15.93;6.55;;;;;;;14.36;69.66;100191.63;5052894;28;20459;-79
2021/08/23 02:44:45;;;;;;;16.30;6.53;;;;;;;14.40;69.70;100188.06;5056343;28;20071;-76
2021/08/23 02:47:11;;;;;;;14.75;5.97;;;;;;;14.39;69.76;100191.56;5052596;28;20049;-80
2021/08/23 02:49:36;;;;;;;13.63;5.53;;;;;;;14.39;69.60;100183.72;5053179;28;20554;-79
2021/08/23 02:52:02;;;;;;;27.60;6.22;;;;;;;14.39;69.26;100192.44;5059582;28;20021;-79
2021/08/23 02:54:28;;;;;;;15.13;5.28;;;;;;;14.39;69.51;100189.81;5076070;28;20055;-80
2021/08/23 02:56:54;;;;;;;14.07;4.57;;;;;;;14.26;69.38;100183.06;5092786;28;20048;-79
2021/08/23 02:59:19;;;;;;;14.50;5.70;;;;;;;14.28;69.43;100194.38;5071449;28;20064;-78
2021/08/23 03:01:45;;;;;;;12.38;4.82;;;;;;;14.21;69.15;100187.53;5072142;28;20471;-79
2021/08/23 03:04:11;;;;;;;12.52;5.57;;;;;;;14.18;69.53;100198.06;5055851;28;20040;-78
2021/08/23 03:06:37;;;;;;;14.23;4.90;;;;;;;14.11;69.42;100198.16;5072217;28;20118;-80
2021/08/23 03:09:03;;;;;;;9.02;4.75;;;;;;;14.07;69.54;100195.63;5073117;28;20407;-78
2021/08/23 03:11:30;;;;;;;12.02;5.60;;;;;;;14.06;69.40;100199.97;5055069;28;20032;-77
2021/08/23 03:13:56;;;;;;;14.30;5.28;;;;;;;14.03;69.61;100204.41;5059385;28;20055;-78
2021/08/23 03:16:22;;;;;;;10.32;5.32;;;;;;;14.05;69.87;100203.50;5078582;28;20036;-76
2021/08/23 03:18:48;;;;;;;14.52;5.82;;;;;;;14.01;69.89;100186.16;5076582;28;20421;-80
2021/08/23 03:21:14;;;;;;;11.25;5.22;;;;;;;14.06;69.81;100189.53;5074281;28;20040;-79
2021/08/23 03:23:39;;;;;;;12.50;4.80;;;;;;;14.17;69.99;100202.41;5072218;28;20059;-76
2021/08/23 03:26:05;;;;;;;15.13;5.18;;;;;;;14.15;69.79;100198.97;5070621;28;20512;-80
2021/08/23 03:28:32;;;;;;;14.55;4.80;;;;;;;14.30;69.62;100211.81;5073021;28;20068;-78
2021/08/23 03:30:58;;;;;;;10.30;5.13;;;;;;;14.31;69.60;100200.44;5072816;28;20139;-78
2021/08/23 03:33:24;;;;;;;11.57;5.00;;;;;;;14.35;69.32;100192.50;5076717;28;20036;-79
2021/08/23 03:35:50;;;;;;;11.45;5.45;;;;;;;14.53;69.39;100204.41;5075278;28;20044;-79
2021/08/23 03:38:16;;;;;;;12.73;5.15;;;;;;;14.44;69.18;100184.50;5079442;28;20054;-78
2021/08/23 03:40:44;;;;;;;10.32;4.93;;;;;;;14.67;69.09;100212.00;5051319;28;20047;-77
2021/08/23 03:43:09;;;;;;;16.10;5.40;;;;;;;14.62;69.10;100185.91;5051837;28;20422;-77
2021/08/23 03:45:35;;;;;;;13.98;5.03;;;;;;;14.80;68.90;100210.03;5050854;28;20479;-76
2021/08/23 03:48:02;;;;;;;13.13;5.03;;;;;;;14.89;68.73;100213.34;5050210;28;20139;-79
2021/08/23 03:50:28;;;;;;;16.45;5.55;;;;;;;14.94;68.73;100197.50;5049905;28;20091;-75
2021/08/23 03:52:54;;;;;;;12.13;5.10;;;;;;;15.06;68.56;100194.66;5051960;28;20033;-76
2021/08/23 03:55:22;;;;;;;15.23;5.20;;;;;;;15.16;68.28;100199.69;5066390;28;20511;-75
2021/08/23 03:57:48;;;;;;;12.65;5.40;;;;;;;15.35;67.92;100214.09;5051016;28;20063;-78
2021/08/23 04:00:14;;;;;;;10.38;4.57;;;;;;;15.42;67.85;100206.13;5037787;28;20392;-78
2021/08/23 04:02:40;;;;;;;11.88;4.57;;;;;;;15.49;67.50;100200.69;5053015;28;20093;-76
2021/08/23 04:05:09;;;;;;;13.43;5.22;;;;;;;15.73;67.27;100206.28;5071370;28;20040;-78
2021/08/23 04:07:34;;;;;;;14.40;5.50;;;;;;;15.91;66.99;100212.88;5069950;28;20487;-75
2021/08/23 04:10:00;;;;;;;13.10;5.05;;;;;;;16.10;66.56;100226.41;5071804;28;20078;-77
2021/08/23 04:12:26;;;;;;;16.48;4.65;;;;;;;16.23;66.07;100219.06;5070241;28;20037;-79
2021/08/23 04:14:51;;;;;;;12.00;5.07;;;;;;;16.37;66.00;100208.22;5070030;28;20154;-79
2021/08/23 04:17:17;;;;;;;14.10;5.00;;;;;;;16.49;65.47;100190.41;5069965;28;20040;-75
2021/08/23 04:19:43;;;;;;;13.95;5.65;;;;;;;16.68;65.17;100193.38;5069472;28;20040;-78
2021/08/23 04:22:11;;;;;;;17.80;5.63;;;;;;;17.01;64.66;100211.75;5069195;28;20135;-77
2021/08/23 04:24:38;;;;;;;17.42;5.43;;;;;;;17.23;64.32;100221.66;5052634;28;20098;-77
2021/08/23 04:27:04;;;;;;;16.10;5.28;;;;;;;17.28;64.03;100210.06;5069384;28;20041;-75
2021/08/23 04:29:30;;;;;;;15.15;5.00;;;;;;;17.55;63.92;100217.16;5070226;28;20523;-74
2021/08/23 04:31:55;;;;;;;12.43;5.07;;;;;;;17.76;63.19;100219.09;5068993;28;20102;-75
2021/08/23 04:34:21;;;;;;;15.18;5.18;;;;;;;17.91;62.67;100206.38;5069241;28;20047;-76
2021/08/23 04:36:57;;;;;;;16.55;4.97;;;;;;;18.00;61.89;100216.63;5069317;28;20602;-76
2021/08/23 04:39:27;;;;;;;15.02;4.88;;;;;;;17.95;61.57;100205.38;5069348;28;20462;-75
2021/08/23 04:42:06;;;;;;;18.73;5.10;;;;;;;18.04;61.56;100206.88;5036112;28;20036;-75
2021/08/23 04:44:32;;;;;;;18.65;4.85;;;;;;;17.35;60.97;100057.34;5037214;28;20044;-76
2021/08/23 04:47:11;;;;;;;12.35;4.70;;;;;;;17.45;60.04;100056.13;5070819;28;20047;-75
2021/08/23 04:49:38;;;;;;;17.15;4.55;;;;;;;18.20;59.74;100155.38;5070699;28;20048;-76
2021/08/23 04:52:06;;;;;;;19.90;4.85;;;;;;;18.79;59.68;100220.97;5054710;28;20041;-75
2021/08/23 04:54:35;;;;;;;18.42;5.28;;;;;;;19.05;59.05;100208.63;5073717;28;20095;-77
2021/08/23 04:57:01;;;;;;;20.52;5.70;;;;;;;19.24;58.66;100198.22;5089320;28;20038;-75
2021/08/23 04:59:27;;;;;;;18.40;5.00;;;;;;;19.34;57.67;100177.63;5068456;28;20327;-75
2021/08/23 05:02:11;;;;;;;24.45;5.65;;;;;;;19.64;56.75;100220.38;5072333;28;20052;-75
2021/08/23 05:04:37;;;;;;;17.00;4.55;;;;;;;19.66;56.77;100207.16;5069360;28;20052;-76
2021/08/23 05:07:13;;;;;;;14.63;4.53;;;;;;;19.88;56.24;100209.78;5070938;28;20044;-77
2021/08/23 05:09:39;;;;;;;17.23;4.45;;;;;;;20.04;55.52;100201.25;5072579;28;20059;-77
2021/08/23 05:12:05;;;;;;;11.95;4.20;;;;;;;20.08;54.97;100203.69;5074372;28;20086;-76
2021/08/23 05:14:31;;;;;;;13.18;4.68;;;;;;;20.28;54.69;100200.22;5023238;28;20500;-76
2021/08/23 05:16:57;;;;;;;8.90;4.28;;;;;;;20.69;53.88;100199.31;5072355;28;20054;-76
2021/08/23 05:19:22;;;;;;;11.07;3.75;;;;;;;21.39;53.17;100217.34;5056299;28;20569;-77
2021/08/23 05:21:48;;;;;;;12.45;3.63;;;;;;;22.77;52.30;100213.16;5074149;28;20090;-75
2021/08/23 05:24:14;;;;;;;8.65;3.72;;;;;;;24.63;49.69;100199.13;5073875;28;20040;-75
2021/08/23 05:26:40;;;;;;;9.85;3.03;;;;;;;26.52;45.93;100202.91;5072785;28;20044;-76
2021/08/23 05:29:06;;;;;;;14.20;4.30;;;;;;;27.82;42.44;100203.50;5073975;28;20044;-76
2021/08/23 05:31:32;;;;;;;13.52;4.20;;;;;;;28.88;40.06;100176.72;5072248;28;20116;-77
2021/08/23 05:33:57;;;;;;;10.25;4.07;;;;;;;30.25;37.09;100177.97;5071564;28;20123;-76
2021/08/23 05:36:23;;;;;;;3.20;2.05;;;;;;;31.24;34.48;100173.88;5055314;28;20044;-76
2021/08/23 05:38:49;;;;;;;3.78;1.48;;;;;;;32.20;31.92;100189.31;5054950;28;20032;-76
2021/08/23 05:41:16;;;;;;;3.05;1.10;;;;;;;32.72;29.80;100161.94;5072997;28;20048;-77
2021/08/23 05:43:42;;;;;;;2.50;1.10;;;;;;;33.21;28.66;100171.63;5073883;28;20523;-76
2021/08/23 05:46:09;;;;;;;2.22;1.00;;;;;;;33.87;27.15;100179.50;5074217;28;20388;-76
2021/08/23 05:48:35;;;;;;;3.08;1.45;;;;;;;34.27;26.33;100161.06;5071388;28;20123;-77
2021/08/23 05:51:02;;;;;;;1.45;1.20;;;;;;;35.09;25.40;100185.78;5055062;28;20419;-77
2021/08/23 05:53:28;;;;;;;1.67;1.20;;;;;;;35.69;24.10;100181.16;5072900;28;20116;-77
2021/08/23 05:55:54;;;;;;;3.00;1.63;;;;;;;35.92;23.19;100169.66;5072998;28;20036;-77
2021/08/23 05:58:19;;;;;;;3.42;1.52;;;;;;;36.58;22.60;100183.13;5073169;28;20042;-75
2021/08/23 06:00:45;;;;;;;2.47;1.45;;;;;;;37.20;22.27;100169.78;5055808;28;20476;-76
2021/08/23 06:03:11;;;;;;;2.13;1.10;;;;;;;37.78;21.41;100172.09;5074425;28;20051;-75
2021/08/23 06:05:36;;;;;;;3.22;1.60;;;;;;;38.51;20.45;100182.47;5071364;28;20044;-76
2021/08/23 06:08:05;;;;;;;3.08;1.80;;;;;;;38.93;19.47;100158.31;5072067;28;20048;-76
2021/08/23 06:10:31;;;;;;;2.53;1.50;;;;;;;39.67;19.37;100173.53;5071929;28;20048;-76
2021/08/23 06:12:56;;;;;;;1.60;1.33;;;;;;;40.27;18.73;100177.81;5071744;28;20051;-75
2021/08/23 06:15:23;;;;;;;2.55;1.73;;;;;;;40.69;17.98;100158.72;5072037;28;20499;-78
2021/08/23 06:17:54;;;;;;;4.90;1.30;;;;;;;40.69;17.70;100172.34;5071578;28;20050;-77
2021/08/23 06:20:29;;;;;;;3.72;2.10;;;;;;;40.31;17.12;100187.22;5071219;28;20071;-76
2021/08/23 06:22:56;;;;;;;4.60;1.70;;;;;;;40.56;16.76;100189.47;5071456;28;20046;-76
2021/08/23 06:25:24;;;;;;;5.90;1.83;;;;;;;41.28;16.03;100184.53;5071464;28;20132;-76
2021/08/23 06:27:53;;;;;;;6.30;1.95;;;;;;;41.58;15.72;100184.19;5071246;28;20044;-76
2021/08/23 06:30:20;;;;;;;;;;;;;;;41.75;15.67;100192.78;5037813;28;20075;-76
2021/08/23 06:32:47;;;;;;;4.40;2.33;;;;;;;41.63;16.31;100170.72;5055359;28;19931;-78
2021/08/23 06:35:29;;;;;;;3.78;1.90;;;;;;;42.53;15.48;100198.59;5038151;28;20043;-78
2021/08/23 06:37:59;;;;;;;4.47;1.77;;;;;;;43.73;14.53;100185.31;5038484;28;20045;-77
2021/08/23 06:40:32;;;;;;;4.32;1.67;;;;;;;44.21;13.67;100138.09;5056389;28;20545;-76
2021/08/23 06:42:58;;;;;;;2.58;1.52;;;;;;;44.07;13.07;100180.41;5055727;28;20047;-78
2021/08/23 06:45:27;;;;;;;3.28;1.98;;;;;;;44.02;13.40;100194.78;5072930;28;20036;-77
2021/08/23 06:47:59;;;;;;;2.88;1.80;;;;;;;44.45;13.12;100197.75;5074509;28;20078;-77
2021/08/23 06:50:27;;;;;;;2.95;1.85;;;;;;;45.00;12.39;100127.41;5073025;28;20040;-80
2021/08/23 06:52:53;;;;;;;3.42;1.67;;;;;;;45.65;12.43;100169.72;5055405;28;20064;-79
2021/08/23 06:55:48;;;;;;;2.40;1.55;;;;;;;46.00;11.67;100135.91;5072658;28;20110;-77
2021/08/23 06:58:37;;;;;;;2.17;1.33;;;;;;;46.08;12.10;100110.81;5024257;28;20048;-79
2021/08/23 07:01:03;;;;;;;2.22;1.30;;;;;;;46.82;11.31;100185.50;5073787;28;20385;-79
2021/08/23 07:03:30;;;;;;;7.82;1.85;;;;;;;46.58;11.09;100169.06;5078758;28;20504;-79
2021/08/23 07:06:00;;;;;;;11.05;9.60;;;;;;;47.14;10.58;100184.97;5076640;28;20088;-78
2021/08/23 07:08:41;;;;;;;14.43;13.03;;;;;;;47.76;10.48;100180.56;5056955;28;20047;-79
2021/08/23 07:11:07;;;;;;;8.45;7.50;;;;;;;48.34;10.00;100175.59;5083356;28;20052;-78
2021/08/23 07:16:46;;;;;;;5.25;4.70;;;;;;;48.20;9.31;100084.16;5069409;28;20048;-77
2021/08/23 07:19:23;;;;;;;2.10;1.58;;;;;;;48.33;9.24;100157.41;5040575;28;20068;-79
2021/08/23 07:21:57;;;;;;;3.10;1.30;;;;;;;47.54;9.38;100104.19;5039619;28;20121;-78
2021/08/23 07:24:28;;;;;;;3.92;1.40;;;;;;;47.15;9.78;100186.66;5073576;28;20071;-78
2021/08/23 07:26:57;;;;;;;4.57;1.70;;;;;;;46.21;9.67;100114.41;5073426;28;20032;-77
2021/08/23 07:29:25;;;;;;;2.13;1.40;;;;;;;44.44;10.97;100185.94;5072997;28;20278;-79
2021/08/23 07:32:15;;;;;;;3.40;2.10;;;;;;;45.24;11.04;100175.00;5070806;28;20064;-78
2021/08/23 07:34:43;;;;;;;3.40;1.83;;;;;;;46.17;10.63;100152.50;5029349;28;20558;-77
2021/08/23 07:37:15;;;;;;;3.72;1.50;;;;;;;46.20;10.34;100141.03;5055455;28;20614;-77
2021/08/23 07:39:50;;;;;;;3.28;1.30;;;;;;;45.70;9.98;100125.91;5072611;28;20044;-77
2021/08/23 07:42:34;;;;;;;2.03;1.35;;;;;;;44.17;10.82;100145.09;5053823;28;20420;-77
2021/08/23 07:45:00;;;;;;;3.90;1.40;;;;;;;44.70;10.73;100156.50;5073553;28;20043;-75
2021/08/23 07:47:26;;;;;;;2.15;1.20;;;;;;;45.96;10.54;100152.03;5055161;28;20049;-78
2021/08/23 07:49:58;;;;;;;2.75;1.40;;;;;;;46.16;9.80;100157.19;5038630;28;20491;-79
2021/08/23 07:52:52;;;;;;;2.13;1.17;;;;;;;44.86;9.56;100070.00;5045344;28;20044;-78
2021/08/23 07:55:49;;;;;;;3.05;1.60;;;;;;;45.53;9.91;100159.53;5075402;28;20032;-77
2021/08/23 07:58:18;;;;;;;1.30;1.20;;;;;;;46.66;9.23;100088.91;5071510;28;20118;-80
2021/08/23 08:00:44;;;;;;;2.88;1.20;;;;;;;48.30;8.76;100149.63;5070575;28;20044;-78
2021/08/23 08:03:10;;;;;;;1.98;1.30;;;;;;;49.46;8.21;100150.56;5070607;28;20043;-77
2021/08/23 08:05:38;;;;;;;1.45;1.25;;;;;;;50.09;8.29;100149.84;5071014;28;20036;-79
2021/08/23 08:08:20;;;;;;;1.55;1.40;;;;;;;50.70;7.63;100148.44;5055871;28;20064;-77
2021/08/23 08:10:49;;;;;;;2.35;1.55;;;;;;;50.79;7.59;100130.19;5055004;28;20036;-79
2021/08/23 08:13:15;;;;;;;2.20;1.63;;;;;;;48.57;8.11;100109.38;5053776;28;20504;-78
2021/08/23 08:15:57;;;;;;;2.30;1.80;;;;;;;47.15;8.88;100051.75;5041067;28;20043;-77
2021/08/23 08:18:22;;;;;;;2.42;1.40;;;;;;;47.10;8.91;100109.50;5070849;28;20032;-78
2021/08/23 08:20:57;;;;;;;2.33;1.40;;;;;;;45.41;9.60;100156.78;5071877;28;20041;-78
2021/08/23 08:23:30;;;;;;;1.70;1.60;;;;;;;45.77;9.11;100101.91;5070570;28;20201;-77
2021/08/23 08:25:59;;;;;;;1.40;1.20;;;;;;;46.59;9.14;100127.53;5069593;28;20032;-79
2021/08/23 08:28:28;;;;;;;2.45;1.42;;;;;;;46.07;9.43;100111.91;5071263;28;20132;-78
2021/08/23 08:30:54;;;;;;;;;;;;;;;47.09;9.24;100135.38;5071493;28;20060;-78
2021/08/23 08:33:36;;;;;;;3.53;1.38;;;;;;;47.38;8.85;100022.38;5072013;28;19920;-79
2021/08/23 08:36:14;;;;;;;1.67;1.17;;;;;;;48.72;8.30;100089.44;5071308;28;20048;-76
2021/08/23 08:38:48;;;;;;;5.63;1.35;;;;;;;49.36;7.79;100093.28;5053268;28;20043;-78
2021/08/23 08:41:16;;;;;;;1.40;1.30;;;;;;;49.93;7.70;100149.78;5055086;28;20041;-78
2021/08/23 08:43:43;;;;;;;1.50;1.40;;;;;;;50.39;7.46;100134.50;5057812;28;20100;-78
2021/08/23 08:46:22;;;;;;;1.88;1.67;;;;;;;49.39;7.62;100115.69;5075612;28;20079;-78
2021/08/23 08:48:48;;;;;;;3.38;1.55;;;;;;;46.07;8.56;100152.31;5075066;28;20067;-78
2021/08/23 08:51:15;;;;;;;2.95;1.70;;;;;;;43.14;10.45;100141.72;5075733;28;20453;-77
2021/08/23 08:53:40;;;;;;;2.78;1.50;;;;;;;42.51;10.74;100141.41;5057788;28;20043;-76
2021/08/23 08:56:06;;;;;;;3.45;1.80;;;;;;;43.47;10.17;100155.19;5075996;28;20048;-76
2021/08/23 08:58:33;;;;;;;2.15;1.35;;;;;;;43.11;10.06;100143.00;5074780;28;20147;-79
2021/08/23 09:01:04;;;;;;;1.58;1.20;;;;;;;43.04;10.51;100145.78;5073590;28;20119;-78
2021/08/23 09:03:30;;;;;;;2.85;1.33;;;;;;;43.71;10.33;100139.00;5058520;28;20048;-77
2021/08/23 09:06:02;;;;;;;1.48;1.13;;;;;;;43.54;10.41;100144.19;5075960;28;20419;-79
2021/08/23 09:08:41;;;;;;;2.05;1.30;;;;;;;43.64;10.75;100130.88;5075481;28;20097;-77
2021/08/23 09:11:16;;;;;;;2.92;1.33;;;;;;;44.90;9.66;100144.44;5078473;28;20047;-77
2021/08/23 09:14:40;;;;;;;4.47;1.70;;;;;;;44.17;10.11;100147.81;5093774;28;20055;-79
2021/08/23 09:17:15;;;;;;;2.20;1.20;;;;;;;45.52;9.76;100105.69;5074804;28;20491;-76
2021/08/23 09:19:57;;;;;;;1.17;1.08;;;;;;;47.15;8.74;100150.84;5060896;28;20119;-78
2021/08/23 09:22:39;;;;;;;3.40;1.65;;;;;;;45.82;9.08;100033.31;5073032;28;20044;-78
2021/08/23 09:25:12;;;;;;;2.83;1.48;;;;;;;46.29;8.61;100112.09;5072580;28;20559;-78
2021/08/23 09:27:45;;;;;;;3.90;1.20;;;;;;;46.22;8.83;100125.13;5072913;28;20126;-77
2021/08/23 09:30:14;;;;;;;2.45;1.15;;;;;;;46.51;8.63;100140.84;5039559;28;20040;-76
2021/08/23 09:33:15;;;;;;;3.17;1.40;;;;;;;45.15;8.43;100064.66;5055089;28;20510;-79
2021/08/23 09:36:01;;;;;;;1.40;1.30;;;;;;;46.31;9.08;100103.59;5072858;28;20051;-78
2021/08/23 09:38:26;;;;;;;4.05;1.50;;;;;;;46.58;8.32;100125.06;5073440;28;20048;-78
2021/08/23 09:41:07;;;;;;;2.53;1.40;;;;;;;45.81;8.29;100140.69;5072975;28;20495;-78
2021/08/23 09:43:35;;;;;;;1.52;1.00;;;;;;;44.53;8.69;100139.84;5057320;28;20036;-78
2021/08/23 09:46:10;;;;;;;3.42;1.50;;;;;;;42.17;10.55;100156.19;5076539;28;20136;-77
2021/08/23 09:48:58;;;;;;;2.08;1.85;;;;;;;42.91;10.58;100145.88;5074651;28;20045;-76
2021/08/23 09:51:31;;;;;;;2.00;1.27;;;;;;;44.47;9.55;100140.78;5073034;28;20060;-77
2021/08/23 09:54:19;;;;;;;3.20;1.00;;;;;;;45.02;8.79;100152.72;5072140;28;20036;-77
2021/08/23 09:56:50;;;;;;;5.05;1.65;;;;;;;45.21;9.25;100150.75;5073996;28;20037;-78
2021/08/23 09:59:19;;;;;;;4.93;1.73;;;;;;;45.67;8.60;100142.84;5055573;28;20165;-77
2021/08/23 10:01:46;;;;;;;3.10;1.10;;;;;;;45.62;8.72;100150.94;5072652;28;20104;-78
2021/08/23 10:04:13;;;;;;;2.10;1.08;;;;;;;45.07;8.61;100147.38;5072266;28;20503;-79
2021/08/23 10:06:41;;;;;;;1.73;1.02;;;;;;;44.38;8.89;100151.16;5056009;28;20070;-77
2021/08/23 10:09:09;;;;;;;2.08;1.33;;;;;;;43.49;9.28;100153.06;5073042;28;20082;-77
2021/08/23 10:11:38;;;;;;;3.33;1.80;;;;;;;42.75;9.96;100145.28;5073061;28;20202;-79
2021/08/23 10:14:06;;;;;;;2.28;1.25;;;;;;;42.70;10.45;100114.19;5072505;28;20036;-78
2021/08/23 10:16:33;;;;;;;4.55;2.30;;;;;;;44.15;9.86;100143.66;5072342;28;20047;-79
2021/08/23 10:18:59;;;;;;;3.72;1.13;;;;;;;45.41;8.90;100129.31;5073776;28;20361;-76
2021/08/23 10:21:26;;;;;;;1.75;1.38;;;;;;;46.20;8.24;100148.47;5072271;28;20078;-78
2021/08/23 10:23:54;;;;;;;4.93;1.30;;;;;;;45.46;8.56;100125.03;5073434;28;20043;-77
2021/08/23 10:26:26;;;;;;;2.28;1.20;;;;;;;44.75;9.09;100136.59;5072468;28;20064;-76
2021/08/23 10:29:10;;;;;;;5.82;1.20;;;;;;;44.15;9.49;100149.13;5056020;28;20128;-78
2021/08/23 10:31:49;;;;;;;2.50;1.20;;;;;;;42.58;9.50;100030.13;5056958;28;20064;-77
2021/08/23 10:37:30;;;;;;;3.08;1.00;;;;;;;41.65;10.55;100086.72;5072532;28;20047;-77
2021/08/23 10:40:03;;;;;;;2.03;1.10;;;;;;;40.03;10.70;100033.69;5071512;28;20674;-77
2021/08/23 10:42:55;;;;;;;1.98;0.90;;;;;;;38.86;11.61;100141.94;5054698;28;20032;-77
2021/08/23 10:45:53;;;;;;;;;;;;;;;;;;;;;
2021/08/23 10:49:25;;;;;;;1.05;0.90;;;;;;;33.85;14.71;100103.25;5071948;28;20051;-76
2021/08/23 10:52:04;;;;;;;3.00;1.13;;;;;;;32.52;15.72;100074.19;5071946;28;20518;-77
2021/08/23 10:54:35;;;;;;;4.00;1.00;;;;;;;31.55;16.74;100158.47;5055089;28;20071;-77
2021/08/23 10:57:35;;;;;;;1.08;0.80;;;;;;;29.98;17.67;100064.00;5070967;28;20535;-78
2021/08/23 11:00:37;;;;;;;1.85;1.05;;;;;;;28.81;18.97;100003.19;5038704;28;20063;-77
2021/08/23 11:04:53;;;;;;;2.33;0.90;;;;;;;28.45;19.34;100005.19;5072806;28;20085;-77
2021/08/23 11:08:10;;;;;;;1.63;1.10;;;;;;;27.90;19.68;100031.81;4981211;28;20071;-76
2021/08/23 11:10:39;;;;;;;2.55;0.82;;;;;;;28.31;19.82;100171.31;4994306;28;20540;-76
2021/08/23 11:13:15;;;;;;;3.80;1.05;;;;;;;27.88;20.49;100170.09;4993642;28;20113;-79
2021/08/23 11:15:41;;;;;;;1.65;0.80;;;;;;;27.33;20.93;100166.06;5026287;28;20584;-77
2021/08/23 11:18:15;;;;;;;1.77;0.80;;;;;;;26.89;21.85;100162.13;5052292;28;20037;-77
2021/08/23 11:20:42;;;;;;;3.05;1.10;;;;;;;26.76;22.35;100163.00;5064341;28;20040;-78
2021/08/23 11:23:10;;;;;;;1.80;1.20;;;;;;;26.60;22.99;100159.69;5075305;28;20049;-77
2021/08/23 11:25:47;;;;;;;;;;;;;;;26.56;23.25;100166.22;5073119;28;20040;-77
2021/08/23 11:28:16;;;;;;;2.22;1.02;;;;;;;26.42;23.24;100146.69;5069819;28;20363;-78
2021/08/23 11:30:45;;;;;;;1.90;0.80;;;;;;;26.26;23.52;100157.56;5072824;28;20048;-78
2021/08/23 11:33:13;;;;;;;2.53;0.90;;;;;;;25.91;23.68;100155.50;5073589;28;20502;-76
2021/08/23 11:35:40;;;;;;;1.05;0.95;;;;;;;25.76;23.62;100157.38;5076571;28;20056;-77
2021/08/23 11:38:11;;;;;;;1.73;0.70;;;;;;;25.61;24.04;100158.41;5041297;28;20064;-79
2021/08/23 11:40:38;;;;;;;1.02;0.73;;;;;;;25.30;24.20;100142.59;5074079;28;20056;-78
2021/08/23 11:43:06;;;;;;;1.45;1.05;;;;;;;25.16;25.01;100143.50;5072670;28;20068;-77
2021/08/23 11:45:35;;;;;;;4.45;1.85;;;;;;;25.19;25.43;100145.09;5073612;28;20119;-77
2021/08/23 11:48:01;;;;;;;3.58;1.40;;;;;;;25.36;25.42;100147.53;5072670;28;20037;-78